Time;durP1;ratioP1;P1;durP2;ratioP2;P2;SDS_P1;SDS_P2;PMS_P1;PMS_P2;Temp;Humidity;BMP_temperature;BMP_pressure;BME280_temperature;BME280_humidity;BME280_pressure;Samples;Min_cycle;Max_cycle;Signal;HPM_P1;HPM_P2
2021/05/09 00:00:19;;;;;;;5.78;2.55;;;14.00;80.90;;;;;;5073772;28;20149;-59
2021/05/09 00:02:44;;;;;;;4.88;2.40;;;14.00;80.90;;;;;;5074076;28;20101;-59
2021/05/09 00:05:10;;;;;;;4.82;3.22;;;14.00;80.80;;;;;;5072842;28;20036;-58
2021/05/09 00:07:36;;;;;;;5.53;3.45;;;14.00;80.90;;;;;;5073697;28;20063;-59
2021/05/09 00:10:04;;;;;;;7.95;4.38;;;14.00;81.00;;;;;;5073421;28;20099;-60
2021/05/09 00:12:30;;;;;;;11.20;3.85;;;14.10;81.30;;;;;;5072928;28;20025;-57
2021/05/09 00:14:56;;;;;;;3.35;1.55;;;14.00;81.30;;;;;;5073105;28;20056;-57
2021/05/09 00:17:21;;;;;;;4.50;2.00;;;14.10;81.00;;;;;;5073243;28;20024;-57
2021/05/09 00:19:47;;;;;;;5.30;3.08;;;14.00;80.90;;;;;;5072777;28;20032;-57
2021/05/09 00:22:13;;;;;;;6.95;3.70;;;14.00;81.10;;;;;;5073343;28;20028;-57
2021/05/09 00:24:38;;;;;;;5.43;3.13;;;14.10;81.20;;;;;;5073335;28;20032;-57
2021/05/09 00:27:04;;;;;;;9.50;3.67;;;14.00;81.00;;;;;;5072248;28;20025;-57
2021/05/09 00:29:30;;;;;;;5.65;3.70;;;14.10;81.20;;;;;;5073038;28;20047;-57
2021/05/09 00:31:57;;;;;;;8.40;3.95;;;14.10;81.10;;;;;;5073253;28;20025;-57
2021/05/09 00:34:22;;;;;;;9.88;3.65;;;14.20;81.20;;;;;;5072444;28;20454;-58
2021/05/09 00:36:48;;;;;;;9.80;3.45;;;14.20;81.00;;;;;;5073119;28;20203;-57
2021/05/09 00:39:14;;;;;;;7.60;4.07;;;14.20;80.90;;;;;;5072871;28;20044;-57
2021/05/09 00:41:39;;;;;;;7.13;4.65;;;14.30;81.00;;;;;;5072342;28;20028;-57
2021/05/09 00:44:05;;;;;;;9.82;4.68;;;14.30;81.10;;;;;;5072612;28;20043;-57
2021/05/09 00:46:31;;;;;;;6.97;4.10;;;14.40;81.10;;;;;;5073279;28;20051;-57
2021/05/09 00:48:58;;;;;;;9.80;4.57;;;14.40;81.00;;;;;;5072384;28;20033;-57
2021/05/09 00:51:23;;;;;;;9.98;4.95;;;14.40;81.20;;;;;;5072684;28;20024;-57
2021/05/09 00:53:51;;;;;;;8.40;4.40;;;14.40;81.00;;;;;;5072219;28;20044;-57
2021/05/09 00:56:18;;;;;;;8.02;4.35;;;14.50;80.90;;;;;;5072590;28;20028;-57
2021/05/09 00:58:47;;;;;;;7.70;4.20;;;14.50;81.00;;;;;;5072707;28;20036;-57
2021/05/09 01:01:15;;;;;;;6.93;4.30;;;14.50;80.90;;;;;;5061655;28;20085;-57
2021/05/09 01:03:42;;;;;;;7.25;4.30;;;14.50;81.00;;;;;;5072451;28;20024;-57
2021/05/09 01:06:09;;;;;;;9.25;4.20;;;14.50;80.90;;;;;;5072529;28;20028;-57
2021/05/09 01:08:36;;;;;;;7.55;4.18;;;14.50;80.90;;;;;;5057534;28;20500;-57
2021/05/09 01:11:04;;;;;;;8.15;4.13;;;14.60;80.90;;;;;;5072399;28;20066;-57
2021/05/09 01:13:31;;;;;;;6.10;3.85;;;14.60;80.70;;;;;;5072829;28;20033;-57
2021/05/09 01:15:59;;;;;;;13.80;3.92;;;14.60;80.60;;;;;;5070614;28;20121;-57
2021/05/09 01:18:26;;;;;;;7.63;4.15;;;14.60;80.30;;;;;;5072374;28;20025;-57
2021/05/09 01:20:52;;;;;;;9.40;4.45;;;14.60;80.30;;;;;;5072527;28;20035;-57
2021/05/09 01:23:17;;;;;;;9.63;4.68;;;14.50;80.30;;;;;;5071724;28;20033;-57
2021/05/09 01:25:43;;;;;;;7.55;4.20;;;14.60;80.30;;;;;;5072500;28;20063;-57
2021/05/09 01:28:09;;;;;;;6.72;4.60;;;14.60;80.40;;;;;;5071037;28;20435;-57
2021/05/09 01:30:36;;;;;;;5.70;4.00;;;14.60;80.50;;;;;;5070593;28;20025;-57
2021/05/09 01:33:03;;;;;;;6.78;4.35;;;14.60;80.40;;;;;;5072501;28;20025;-57
2021/05/09 01:35:30;;;;;;;10.25;4.30;;;14.60;80.40;;;;;;5069927;28;20038;-57
2021/05/09 01:37:56;;;;;;;7.30;4.43;;;14.60;80.40;;;;;;5071756;28;20108;-58
2021/05/09 01:40:22;;;;;;;7.15;4.20;;;14.60;80.40;;;;;;5073376;28;20051;-58
2021/05/09 01:42:48;;;;;;;9.90;4.05;;;14.60;80.90;;;;;;5076507;28;20112;-58
2021/05/09 01:45:16;;;;;;;7.93;4.28;;;14.50;80.10;;;;;;5075493;28;20029;-58
2021/05/09 01:47:43;;;;;;;7.57;3.97;;;14.50;80.10;;;;;;5075156;28;20024;-58
2021/05/09 01:50:16;;;;;;;6.75;4.53;;;14.50;80.00;;;;;;5074016;28;20473;-58
2021/05/09 01:52:42;;;;;;;10.35;4.57;;;14.50;80.20;;;;;;5075987;28;20040;-58
2021/05/09 01:55:29;;;;;;;17.92;3.90;;;14.50;80.20;;;;;;5074943;28;20040;-58
2021/05/09 01:58:05;;;;;;;12.73;4.43;;;14.50;80.00;;;;;;5074220;28;20036;-58
2021/05/09 02:00:43;;;;;;;7.38;4.30;;;14.50;79.90;;;;;;5074762;28;20024;-58
2021/05/09 02:03:16;;;;;;;;;;;14.40;79.90;;;;;;5075260;28;20495;-58
2021/05/09 02:05:42;;;;;;;9.07;3.70;;;14.40;79.50;;;;;;5090891;28;19908;-58
2021/05/09 02:08:09;;;;;;;7.28;3.90;;;14.40;79.50;;;;;;5076147;28;20078;-58
2021/05/09 02:10:40;;;;;;;7.35;4.28;;;14.30;79.80;;;;;;5073041;28;20029;-58
2021/05/09 02:13:08;;;;;;;6.45;3.78;;;14.40;80.00;;;;;;5075037;28;20025;-58
2021/05/09 02:15:42;;;;;;;7.32;4.20;;;14.40;80.10;;;;;;5074494;28;20098;-58
2021/05/09 02:18:11;;;;;;;6.30;3.60;;;14.30;80.00;;;;;;5073736;28;20028;-58
2021/05/09 02:20:42;;;;;;;8.38;3.85;;;14.30;80.00;;;;;;5075910;28;20029;-58
2021/05/09 02:23:08;;;;;;;8.82;4.10;;;14.40;80.20;;;;;;5075458;28;20033;-57
2021/05/09 02:25:34;;;;;;;9.15;4.38;;;14.40;80.20;;;;;;5073723;28;20135;-58
2021/05/09 02:28:04;;;;;;;6.20;4.38;;;14.40;80.20;;;;;;5074177;28;20032;-58
2021/05/09 02:30:30;;;;;;;8.18;3.72;;;14.40;80.10;;;;;;5074291;28;20071;-58
2021/05/09 02:32:57;;;;;;;13.10;4.18;;;14.40;80.20;;;;;;5073423;28;20506;-58
2021/05/09 02:35:24;;;;;;;7.63;4.03;;;14.40;80.20;;;;;;5075567;28;20160;-58
2021/05/09 02:37:50;;;;;;;9.93;4.13;;;14.30;80.00;;;;;;5075446;28;20025;-58
2021/05/09 02:40:16;;;;;;;10.95;4.15;;;14.30;80.00;;;;;;5073323;28;20146;-58
2021/05/09 02:42:44;;;;;;;11.75;3.80;;;14.30;80.00;;;;;;5074005;28;20510;-58
2021/05/09 02:45:12;;;;;;;6.28;3.60;;;14.30;80.20;;;;;;5073941;28;20541;-58
2021/05/09 02:47:38;;;;;;;7.38;4.25;;;14.30;80.10;;;;;;5073330;28;20025;-58
2021/05/09 02:50:09;;;;;;;5.53;3.50;;;14.20;80.20;;;;;;5075179;28;20029;-58
2021/05/09 02:52:38;;;;;;;8.40;4.47;;;14.30;80.40;;;;;;5075082;28;20049;-58
2021/05/09 02:55:05;;;;;;;10.43;4.35;;;14.30;80.40;;;;;;5072797;28;20525;-58
2021/05/09 02:57:31;;;;;;;5.75;3.63;;;14.20;80.20;;;;;;5073904;28;20119;-58
2021/05/09 02:59:57;;;;;;;9.65;4.60;;;14.20;80.30;;;;;;5074060;28;20134;-58
2021/05/09 03:02:23;;;;;;;9.88;4.25;;;14.30;80.40;;;;;;5060325;28;20029;-58
2021/05/09 03:04:49;;;;;;;9.90;4.57;;;14.30;80.40;;;;;;5075078;28;20042;-58
2021/05/09 03:07:15;;;;;;;8.75;4.45;;;14.30;80.50;;;;;;5074719;28;20025;-58
2021/05/09 03:09:41;;;;;;;9.50;4.93;;;14.30;80.50;;;;;;5074072;28;20051;-58
2021/05/09 03:12:07;;;;;;;8.65;4.20;;;14.30;80.60;;;;;;5074652;28;20020;-58
2021/05/09 03:14:34;;;;;;;7.70;4.20;;;14.30;80.60;;;;;;5072547;28;20037;-58
2021/05/09 03:17:00;;;;;;;6.85;4.07;;;14.20;80.60;;;;;;5074831;28;20020;-58
2021/05/09 03:19:26;;;;;;;9.27;4.40;;;14.20;80.60;;;;;;5074657;28;20134;-58
2021/05/09 03:21:51;;;;;;;9.30;4.55;;;14.20;80.60;;;;;;5073913;28;20496;-59
2021/05/09 03:24:17;;;;;;;15.45;4.93;;;14.20;80.70;;;;;;5074508;28;20059;-58
2021/05/09 03:26:46;;;;;;;7.75;4.50;;;14.20;80.80;;;;;;5074410;28;20477;-58
2021/05/09 03:29:11;;;;;;;8.68;4.07;;;14.20;80.70;;;;;;5073804;28;20032;-58
2021/05/09 03:31:37;;;;;;;8.13;4.53;;;14.20;80.70;;;;;;5074441;28;20031;-58
2021/05/09 03:34:03;;;;;;;9.18;4.07;;;14.20;80.80;;;;;;5074420;28;20068;-57
2021/05/09 03:36:29;;;;;;;11.25;5.00;;;14.20;80.90;;;;;;5073660;28;20765;-58
2021/05/09 03:38:55;;;;;;;11.65;4.50;;;14.20;80.90;;;;;;5074749;28;20078;-58
2021/05/09 03:41:22;;;;;;;6.90;3.85;;;14.20;80.90;;;;;;5072782;28;20127;-58
2021/05/09 03:43:48;;;;;;;11.77;4.97;;;14.20;81.00;;;;;;5073474;28;20378;-58
2021/05/09 03:46:14;;;;;;;11.57;4.40;;;14.10;80.90;;;;;;5074219;28;20048;-58
2021/05/09 03:48:39;;;;;;;7.35;3.67;;;14.10;81.00;;;;;;5073932;28;20028;-58
2021/05/09 03:51:05;;;;;;;12.88;3.78;;;14.10;80.80;;;;;;5073462;28;20036;-58
2021/05/09 03:53:31;;;;;;;8.80;3.97;;;14.10;81.00;;;;;;5073578;28;20487;-58
2021/05/09 03:56:00;;;;;;;5.80;3.70;;;14.10;80.90;;;;;;5072599;28;20036;-57
2021/05/09 03:58:26;;;;;;;7.63;4.00;;;14.10;80.40;;;;;;5073203;28;20050;-58
2021/05/09 04:00:51;;;;;;;8.43;2.97;;;14.00;80.20;;;;;;5073750;28;20138;-58
2021/05/09 04:03:25;;;;;;;10.25;4.35;;;14.00;80.10;;;;;;5073414;28;20024;-57
2021/05/09 04:05:52;;;;;;;8.70;3.72;;;14.00;80.20;;;;;;5071901;28;20066;-58
2021/05/09 04:08:28;;;;;;;7.10;3.70;;;14.00;79.90;;;;;;5073708;28;20460;-58
2021/05/09 04:10:56;;;;;;;7.78;4.07;;;14.00;80.00;;;;;;5072810;28;20060;-58
2021/05/09 04:13:22;;;;;;;9.50;3.85;;;14.00;79.80;;;;;;5073773;28;20031;-58
2021/05/09 04:15:48;;;;;;;6.82;3.40;;;14.00;79.90;;;;;;5073351;28;20090;-58
2021/05/09 04:18:14;;;;;;;9.27;3.90;;;14.00;79.70;;;;;;5072858;28;20044;-57
2021/05/09 04:20:40;;;;;;;5.72;3.72;;;14.00;79.90;;;;;;5073494;28;20029;-58
2021/05/09 04:23:10;;;;;;;10.23;4.18;;;14.00;79.90;;;;;;5073165;28;20426;-58
2021/05/09 04:25:37;;;;;;;6.22;3.33;;;14.00;80.10;;;;;;5072889;28;20025;-58
2021/05/09 04:28:03;;;;;;;10.20;3.83;;;14.00;79.70;;;;;;5073205;28;20078;-58
2021/05/09 04:30:29;;;;;;;6.90;3.80;;;14.00;79.60;;;;;;5073393;28;20467;-58
2021/05/09 04:33:01;;;;;;;8.52;3.47;;;14.00;79.80;;;;;;5072337;28;20119;-58
2021/05/09 04:35:27;;;;;;;6.65;3.47;;;14.00;79.80;;;;;;5073072;28;20044;-58
2021/05/09 04:37:53;;;;;;;7.13;3.22;;;14.00;79.50;;;;;;5073143;28;20028;-58
2021/05/09 04:40:19;;;;;;;6.60;3.17;;;14.00;79.40;;;;;;5072302;28;20090;-58
2021/05/09 04:42:45;;;;;;;5.50;3.42;;;14.00;79.30;;;;;;5073146;28;20028;-58
2021/05/09 04:45:12;;;;;;;7.18;3.55;;;14.00;79.50;;;;;;5072909;28;20451;-58
2021/05/09 04:47:37;;;;;;;7.03;3.65;;;14.00;79.50;;;;;;5072310;28;20059;-58
2021/05/09 04:50:04;;;;;;;7.90;3.60;;;14.00;79.50;;;;;;5072786;28;20545;-58
2021/05/09 04:52:30;;;;;;;5.63;2.47;;;14.00;79.40;;;;;;5072967;28;20055;-58
2021/05/09 04:54:56;;;;;;;7.65;2.80;;;14.00;79.20;;;;;;5071878;28;20422;-58
2021/05/09 04:57:22;;;;;;;4.57;2.95;;;14.00;79.10;;;;;;5071712;28;20029;-58
2021/05/09 04:59:47;;;;;;;7.28;3.40;;;14.10;79.40;;;;;;5072760;28;20086;-58
2021/05/09 05:02:13;;;;;;;9.85;3.50;;;14.00;79.20;;;;;;5071932;28;20024;-58
2021/05/09 05:04:39;;;;;;;7.13;3.47;;;14.10;79.80;;;;;;5072841;28;20052;-58
2021/05/09 05:07:04;;;;;;;7.70;3.55;;;14.10;79.30;;;;;;5071986;28;20028;-58
2021/05/09 05:09:30;;;;;;;6.95;3.08;;;14.10;79.30;;;;;;5072616;28;20028;-58
2021/05/09 05:11:56;;;;;;;7.85;3.20;;;14.10;79.00;;;;;;5072686;28;20028;-58
2021/05/09 05:14:25;;;;;;;8.90;3.75;;;14.10;78.80;;;;;;5071157;28;20032;-58
2021/05/09 05:16:51;;;;;;;8.10;3.70;;;14.10;79.10;;;;;;5072487;28;20025;-58
2021/05/09 05:19:16;;;;;;;5.50;3.10;;;14.20;79.20;;;;;;5072400;28;20440;-58
2021/05/09 05:21:42;;;;;;;5.55;2.83;;;14.20;79.00;;;;;;5072187;28;20047;-58
2021/05/09 05:24:08;;;;;;;10.65;3.40;;;14.20;78.90;;;;;;5071321;28;20036;-58
2021/05/09 05:26:35;;;;;;;11.07;3.78;;;14.20;79.20;;;;;;5072436;28;20085;-58
2021/05/09 05:29:00;;;;;;;8.05;3.45;;;14.20;79.30;;;;;;5071955;28;20025;-58
2021/05/09 05:31:26;;;;;;;7.35;2.67;;;14.30;78.90;;;;;;5072310;28;20031;-58
2021/05/09 05:33:52;;;;;;;7.35;3.00;;;14.20;78.60;;;;;;5072363;28;20017;-58
2021/05/09 05:36:18;;;;;;;6.28;3.50;;;14.20;79.20;;;;;;5071669;28;20040;-58
2021/05/09 05:38:44;;;;;;;10.10;3.78;;;14.30;79.60;;;;;;5072629;28;20388;-58
2021/05/09 05:41:10;;;;;;;10.52;3.42;;;14.30;79.60;;;;;;5072399;28;20090;-58
2021/05/09 05:43:36;;;;;;;7.22;3.47;;;14.30;79.30;;;;;;5071494;28;20021;-58
2021/05/09 05:46:03;;;;;;;9.50;3.08;;;14.40;79.40;;;;;;5072308;28;20475;-58
2021/05/09 05:48:29;;;;;;;6.72;2.80;;;14.30;78.90;;;;;;5070918;28;20426;-58
2021/05/09 05:50:55;;;;;;;7.07;3.80;;;14.40;79.20;;;;;;5071742;28;20044;-58
2021/05/09 05:53:26;;;;;;;7.47;3.72;;;14.40;79.20;;;;;;5072012;28;20094;-58
2021/05/09 05:55:53;;;;;;;5.30;3.22;;;14.40;79.10;;;;;;5072400;28;20033;-58
2021/05/09 05:58:19;;;;;;;13.73;3.63;;;14.40;79.00;;;;;;5071334;28;20024;-58
2021/05/09 06:00:45;;;;;;;2.45;1.50;;;14.40;79.20;;;;;;5072153;28;20090;-58
2021/05/09 06:03:11;;;;;;;7.97;3.38;;;14.40;78.70;;;;;;5061279;28;20033;-58
2021/05/09 06:05:37;;;;;;;3.55;1.80;;;14.40;79.10;;;;;;5070495;28;20422;-58
2021/05/09 06:08:04;;;;;;;4.95;2.13;;;14.40;78.90;;;;;;5071952;28;20025;-58
2021/05/09 06:10:30;;;;;;;7.75;3.25;;;14.40;79.00;;;;;;5071170;28;20032;-58
2021/05/09 06:12:56;;;;;;;5.18;2.22;;;14.40;79.50;;;;;;5071908;28;20093;-58
2021/05/09 06:15:22;;;;;;;8.65;3.25;;;14.40;79.40;;;;;;5072072;28;20124;-58
2021/05/09 06:17:48;;;;;;;1.63;1.35;;;14.40;80.20;;;;;;5071152;28;20025;-58
2021/05/09 06:20:14;;;;;;;1.98;1.38;;;14.40;79.40;;;;;;5072236;28;20119;-60
2021/05/09 06:22:39;;;;;;;12.88;3.13;;;14.40;79.50;;;;;;5071833;28;20422;-58
2021/05/09 06:25:06;;;;;;;11.43;3.63;;;14.40;80.00;;;;;;5070752;28;20020;-58
2021/05/09 06:27:32;;;;;;;4.63;3.10;;;14.50;80.60;;;;;;5074383;28;20036;-58
2021/05/09 06:29:57;;;;;;;5.15;3.08;;;14.50;80.50;;;;;;5067800;28;20468;-58
2021/05/09 06:32:23;;;;;;;5.50;2.75;;;14.60;80.90;;;;;;5074634;28;20483;-58
2021/05/09 06:34:49;;;;;;;8.32;3.92;;;14.60;80.70;;;;;;5075351;28;20041;-58
2021/05/09 06:37:15;;;;;;;4.38;2.05;;;14.60;81.00;;;;;;5073813;28;20029;-58
2021/05/09 06:39:41;;;;;;;7.18;3.10;;;14.70;80.40;;;;;;5072515;28;20388;-58
2021/05/09 06:42:07;;;;;;;5.70;3.35;;;14.80;80.70;;;;;;5073584;28;20029;-58
2021/05/09 06:44:39;;;;;;;3.75;1.98;;;14.80;80.90;;;;;;5072167;28;20056;-58
2021/05/09 06:47:08;;;;;;;6.53;2.72;;;14.90;80.60;;;;;;5071941;28;20074;-58
2021/05/09 06:49:33;;;;;;;1.27;1.13;;;14.90;80.30;;;;;;5074306;28;20032;-58
2021/05/09 06:52:00;;;;;;;5.57;2.80;;;15.00;80.00;;;;;;5074647;28;20102;-58
2021/05/09 06:54:25;;;;;;;10.70;3.42;;;15.00;80.40;;;;;;5073680;28;20036;-58
2021/05/09 06:56:52;;;;;;;4.72;3.10;;;15.00;80.90;;;;;;5074435;28;20028;-58
2021/05/09 06:59:18;;;;;;;6.45;2.13;;;15.00;81.20;;;;;;5074957;28;20063;-58
2021/05/09 07:01:44;;;;;;;5.60;2.58;;;15.10;80.90;;;;;;5073883;28;20078;-58
2021/05/09 07:04:13;;;;;;;7.57;3.22;;;15.00;81.00;;;;;;5074976;28;20032;-58
2021/05/09 07:06:38;;;;;;;3.15;2.13;;;15.10;81.40;;;;;;5074123;28;20491;-58
2021/05/09 07:09:06;;;;;;;5.30;2.38;;;15.10;81.20;;;;;;5073366;28;20791;-59
2021/05/09 07:11:33;;;;;;;24.23;2.90;;;15.20;81.40;;;;;;5071421;28;20553;-59
2021/05/09 07:13:58;;;;;;;10.15;3.13;;;15.20;81.70;;;;;;5072319;28;20050;-58
2021/05/09 07:16:25;;;;;;;6.63;3.67;;;15.20;82.00;;;;;;5072790;28;20028;-59
2021/05/09 07:18:51;;;;;;;10.27;3.25;;;15.20;82.70;;;;;;5073308;28;20108;-70
2021/05/09 07:21:23;;;;;;;4.03;1.70;;;15.30;82.40;;;;;;5072446;28;20428;-59
2021/05/09 07:23:49;;;;;;;6.82;3.33;;;15.40;81.90;;;;;;5058859;28;20387;-58
2021/05/09 07:26:15;;;;;;;5.50;2.30;;;15.40;82.30;;;;;;5060236;28;20037;-59
2021/05/09 07:28:41;;;;;;;9.77;3.30;;;15.40;82.10;;;;;;5073992;28;20028;-58
2021/05/09 07:31:07;;;;;;;7.35;3.13;;;15.50;82.50;;;;;;5074234;28;20028;-59
2021/05/09 07:33:33;;;;;;;7.32;3.45;;;15.50;82.90;;;;;;5074319;28;20024;-58
2021/05/09 07:35:59;;;;;;;8.73;4.18;;;15.60;82.90;;;;;;5072484;28;20040;-59
2021/05/09 07:38:25;;;;;;;7.50;3.25;;;15.60;83.00;;;;;;5072359;28;20028;-59
2021/05/09 07:40:51;;;;;;;10.43;3.35;;;15.70;82.70;;;;;;5074219;28;20116;-58
2021/05/09 07:43:19;;;;;;;10.10;3.72;;;15.80;82.40;;;;;;5073415;28;20020;-59
2021/05/09 07:45:45;;;;;;;6.70;3.33;;;15.90;82.60;;;;;;5073895;28;20037;-58
2021/05/09 07:48:11;;;;;;;7.60;4.10;;;16.00;82.40;;;;;;5073861;28;20028;-58
2021/05/09 07:50:40;;;;;;;13.43;4.50;;;16.10;83.00;;;;;;5073374;28;20392;-59
2021/05/09 07:53:14;;;;;;;6.13;3.67;;;16.10;83.20;;;;;;5073806;28;20047;-58
2021/05/09 07:55:40;;;;;;;6.80;3.17;;;16.20;82.70;;;;;;5073072;28;20433;-59
2021/05/09 07:58:20;;;;;;;10.73;3.42;;;16.30;82.20;;;;;;5073177;28;20115;-59
2021/05/09 08:00:47;;;;;;;4.88;2.75;;;16.40;81.80;;;;;;5073808;28;20107;-59
2021/05/09 08:03:13;;;;;;;7.05;3.58;;;16.40;81.20;;;;;;5073085;28;20035;-59
2021/05/09 08:05:39;;;;;;;8.52;4.10;;;16.40;81.40;;;;;;5073452;28;20066;-59
2021/05/09 08:08:05;;;;;;;9.95;4.10;;;16.40;82.30;;;;;;5073902;28;20464;-59
2021/05/09 08:10:35;;;;;;;6.93;3.25;;;16.60;82.70;;;;;;5072596;28;20115;-59
2021/05/09 08:13:02;;;;;;;9.27;3.97;;;16.60;81.90;;;;;;5069278;28;20032;-58
2021/05/09 08:15:28;;;;;;;9.73;4.05;;;16.70;82.20;;;;;;5073044;28;20044;-58
2021/05/09 08:17:54;;;;;;;6.80;3.97;;;16.80;82.20;;;;;;5067253;28;20166;-58
2021/05/09 08:20:20;;;;;;;10.93;4.40;;;16.80;82.30;;;;;;5068987;28;20035;-58
2021/05/09 08:22:47;;;;;;;9.73;3.72;;;16.90;82.10;;;;;;5071318;28;20051;-58
2021/05/09 08:25:14;;;;;;;8.40;3.88;;;17.00;81.80;;;;;;5072627;28;20071;-58
2021/05/09 08:27:40;;;;;;;11.27;3.40;;;17.00;81.80;;;;;;5069502;28;20519;-58
2021/05/09 08:30:07;;;;;;;7.93;3.67;;;17.10;81.60;;;;;;5070049;28;20028;-57
2021/05/09 08:32:32;;;;;;;8.50;3.88;;;17.20;81.90;;;;;;5069673;28;20032;-57
2021/05/09 08:35:00;;;;;;;5.75;2.70;;;17.30;81.90;;;;;;5068303;28;20032;-59
2021/05/09 08:37:26;;;;;;;7.75;3.53;;;17.30;81.20;;;;;;5070017;28;20032;-57
2021/05/09 08:39:52;;;;;;;9.50;4.00;;;17.40;81.40;;;;;;5070830;28;20388;-58
2021/05/09 08:42:19;;;;;;;6.15;2.53;;;17.40;81.70;;;;;;5071375;28;20104;-60
2021/05/09 08:44:49;;;;;;;5.30;2.10;;;17.50;81.60;;;;;;5070955;28;20028;-60
2021/05/09 08:47:21;;;;;;;4.03;1.98;;;17.60;80.80;;;;;;5068831;28;20043;-60
2021/05/09 08:49:48;;;;;;;1.98;1.27;;;17.60;80.30;;;;;;5070653;28;20491;-60
2021/05/09 08:52:20;;;;;;;3.95;2.45;;;17.60;80.10;;;;;;5068191;28;20061;-60
2021/05/09 08:54:46;;;;;;;4.28;2.17;;;17.60;80.00;;;;;;5071163;28;20122;-60
2021/05/09 08:57:12;;;;;;;5.18;2.72;;;17.60;80.30;;;;;;5069746;28;20036;-58
2021/05/09 08:59:38;;;;;;;7.05;2.08;;;17.60;80.50;;;;;;5068072;28;20078;-59
2021/05/09 09:02:04;;;;;;;8.35;2.95;;;17.60;81.40;;;;;;5068374;28;20044;-59
2021/05/09 09:04:54;;;;;;;5.50;2.45;;;17.70;81.10;;;;;;5066665;28;20442;-58
2021/05/09 09:07:20;;;;;;;7.28;2.75;;;17.70;81.40;;;;;;5064356;28;20448;-59
2021/05/09 09:09:48;;;;;;;8.35;2.50;;;17.80;81.40;;;;;;5066051;28;20075;-58
2021/05/09 09:12:16;;;;;;;9.43;3.83;;;18.00;81.00;;;;;;5068290;28;20029;-59
2021/05/09 09:14:58;;;;;;;7.13;2.70;;;18.00;81.30;;;;;;5069754;28;20054;-59
2021/05/09 09:17:25;;;;;;;6.47;2.58;;;18.10;81.10;;;;;;5066229;28;20090;-59
2021/05/09 09:20:18;;;;;;;4.88;2.75;;;18.20;80.80;;;;;;5069873;28;20036;-59
2021/05/09 09:22:50;;;;;;;7.20;2.40;;;18.20;81.00;;;;;;5068710;28;20525;-65
2021/05/09 09:25:17;;;;;;;3.30;1.15;;;18.30;80.40;;;;;;5069975;28;20082;-60
2021/05/09 09:27:44;;;;;;;6.95;2.55;;;18.40;80.10;;;;;;5071879;28;20053;-58
2021/05/09 09:30:12;;;;;;;6.13;1.90;;;18.40;80.30;;;;;;5072314;28;20033;-59
2021/05/09 09:32:38;;;;;;;2.33;1.40;;;18.50;80.30;;;;;;5071329;28;20035;-59
2021/05/09 09:35:04;;;;;;;6.47;2.50;;;18.50;80.40;;;;;;5069051;28;20040;-60
2021/05/09 09:37:34;;;;;;;6.18;2.35;;;18.40;80.50;;;;;;5071192;28;20028;-59
2021/05/09 09:40:02;;;;;;;27.95;5.38;;;18.40;80.70;;;;;;5071038;28;20033;-59
2021/05/09 09:42:38;;;;;;;147.02;15.80;;;18.40;80.80;;;;;;5070437;28;20112;-59
2021/05/09 09:45:22;;;;;;;11.05;3.35;;;18.40;81.00;;;;;;5068429;28;20029;-60
2021/05/09 09:47:50;;;;;;;5.30;2.97;;;18.40;81.10;;;;;;5070703;28;20024;-59
2021/05/09 09:50:37;;;;;;;7.15;3.72;;;18.50;81.30;;;;;;5065522;28;20055;-59
2021/05/09 09:53:31;;;;;;;7.43;3.03;;;18.50;81.40;;;;;;5071133;28;20167;-58
2021/05/09 09:56:09;;;;;;;4.57;2.83;;;18.60;81.50;;;;;;5068082;28;20062;-58
2021/05/09 09:58:51;;;;;;;9.93;3.80;;;18.70;81.50;;;;;;5070574;28;20476;-58
2021/05/09 10:01:27;;;;;;;10.38;3.30;;;18.70;81.60;;;;;;5073301;28;20037;-59
2021/05/09 10:03:58;;;;;;;3.38;2.47;;;18.80;81.70;;;;;;5075119;28;20095;-59
2021/05/09 10:06:25;;;;;;;5.57;3.00;;;18.90;81.80;;;;;;5076078;28;20024;-59
2021/05/09 10:08:52;;;;;;;7.75;3.33;;;19.00;81.90;;;;;;5075750;28;20031;-59
2021/05/09 10:11:19;;;;;;;4.55;2.92;;;18.90;81.70;;;;;;5074932;28;20035;-58
2021/05/09 10:13:48;;;;;;;4.28;2.70;;;19.00;81.60;;;;;;5075752;28;20093;-58
2021/05/09 10:16:18;;;;;;;5.32;2.47;;;19.00;81.40;;;;;;5075661;28;20044;-59
2021/05/09 10:18:47;;;;;;;3.97;2.10;;;19.00;81.10;;;;;;5074843;28;20052;-59
2021/05/09 10:21:13;;;;;;;3.80;2.17;;;19.00;81.10;;;;;;5075440;28;20420;-59
2021/05/09 10:24:07;;;;;;;5.72;2.40;;;19.00;81.10;;;;;;5075011;28;20029;-59
2021/05/09 10:27:01;;;;;;;7.90;2.60;;;19.00;81.10;;;;;;5060960;28;20028;-58
2021/05/09 10:29:32;;;;;;;5.57;2.72;;;19.10;81.00;;;;;;5074303;28;20487;-60
2021/05/09 10:32:27;;;;;;;6.00;2.78;;;19.10;81.10;;;;;;5064358;28;20029;-59
2021/05/09 10:34:56;;;;;;;3.70;2.55;;;19.00;81.20;;;;;;5063640;28;20388;-59
2021/05/09 10:37:42;;;;;;;4.97;2.88;;;19.10;81.20;;;;;;5073783;28;20028;-59
2021/05/09 10:40:37;;;;;;;10.95;2.97;;;19.10;81.20;;;;;;5073304;28;20040;-59
2021/05/09 10:43:03;;;;;;;4.43;2.38;;;19.10;81.10;;;;;;5072337;28;20028;-60
2021/05/09 10:45:35;;;;;;;4.32;2.13;;;19.10;81.00;;;;;;5070323;28;20023;-59
2021/05/09 10:48:16;;;;;;;6.43;2.05;;;19.20;81.10;;;;;;5073313;28;20034;-61
2021/05/09 10:50:43;;;;;;;13.07;3.72;;;19.20;81.00;;;;;;5073534;28;20473;-60
2021/05/09 10:53:34;;;;;;;21.85;5.30;;;19.20;80.80;;;;;;5072696;28;20468;-58
2021/05/09 10:56:03;;;;;;;37.65;6.85;;;19.30;80.70;;;;;;5072611;28;20044;-58
2021/05/09 10:58:49;;;;;;;11.48;2.97;;;19.30;80.30;;;;;;5073497;28;20033;-58
2021/05/09 11:01:35;;;;;;;7.50;3.17;;;19.40;80.50;;;;;;5068627;28;20128;-61
2021/05/09 11:04:07;;;;;;;6.47;2.38;;;19.40;80.40;;;;;;5062416;28;20028;-60
2021/05/09 11:06:47;;;;;;;5.78;2.65;;;19.50;80.10;;;;;;5058414;28;20040;-58
2021/05/09 11:09:14;;;;;;;5.07;3.40;;;19.60;80.50;;;;;;5071802;28;20043;-58
2021/05/09 11:11:39;;;;;;;5.50;2.80;;;19.50;80.30;;;;;;5070292;28;20028;-58
2021/05/09 11:14:08;;;;;;;6.03;3.40;;;19.60;80.30;;;;;;5073137;28;20043;-58
2021/05/09 11:16:34;;;;;;;4.10;2.90;;;19.60;80.90;;;;;;5073389;28;20028;-59
2021/05/09 11:19:06;;;;;;;5.97;2.88;;;19.60;81.20;;;;;;5064879;28;20108;-59
2021/05/09 11:21:34;;;;;;;5.40;2.50;;;19.60;81.20;;;;;;5070233;28;20059;-59
2021/05/09 11:24:01;;;;;;;6.22;2.45;;;19.60;81.10;;;;;;5071244;28;20024;-59
2021/05/09 11:26:32;;;;;;;7.00;2.60;;;19.70;81.10;;;;;;5070765;28;20036;-59
2021/05/09 11:29:18;;;;;;;4.38;2.65;;;19.70;80.90;;;;;;5066173;28;20033;-60
2021/05/09 11:31:52;;;;;;;4.15;2.35;;;19.80;80.90;;;;;;5069262;28;20040;-60
2021/05/09 11:34:19;;;;;;;6.13;2.95;;;19.90;81.20;;;;;;5069178;28;20543;-60
2021/05/09 11:36:48;;;;;;;3.28;2.38;;;19.90;81.20;;;;;;5072674;28;20468;-60
2021/05/09 11:39:18;;;;;;;4.95;2.92;;;20.00;81.30;;;;;;5072659;28;20032;-60
2021/05/09 11:42:11;;;;;;;5.80;2.90;;;20.10;80.90;;;;;;5072032;28;20051;-60
2021/05/09 11:44:56;;;;;;;;;;;20.10;80.90;;;;;;5057867;28;20044;-60
2021/05/09 11:47:24;;;;;;;5.95;3.30;;;20.20;80.70;;;;;;5069717;28;19916;-60
2021/05/09 11:49:53;;;;;;;5.90;2.70;;;20.20;80.40;;;;;;5069500;28;20059;-62
2021/05/09 11:52:22;;;;;;;4.25;2.42;;;20.30;80.20;;;;;;5065599;28;20048;-60
2021/05/09 11:54:50;;;;;;;5.03;2.28;;;20.30;80.10;;;;;;5073172;28;20043;-61
2021/05/09 11:57:18;;;;;;;6.00;3.15;;;20.40;80.20;;;;;;5065301;28;20037;-60
2021/05/09 11:59:48;;;;;;;7.63;2.80;;;20.40;80.10;;;;;;5073413;28;20099;-61
2021/05/09 12:02:21;;;;;;;5.55;2.90;;;20.40;80.20;;;;;;5067167;28;20047;-60
2021/05/09 12:04:52;;;;;;;4.95;2.97;;;20.40;80.40;;;;;;5073341;28;20456;-59
2021/05/09 12:07:21;;;;;;;4.93;2.60;;;20.50;80.20;;;;;;5072584;28;20111;-59
2021/05/09 12:10:05;;;;;;;4.57;1.92;;;20.50;80.20;;;;;;5066281;28;20032;-60
2021/05/09 12:12:33;;;;;;;3.22;2.05;;;20.60;80.10;;;;;;5072965;28;20032;-60
2021/05/09 12:15:13;;;;;;;2.15;1.85;;;20.70;79.60;;;;;;5070328;28;21280;-60
2021/05/09 12:17:55;;;;;;;3.17;1.95;;;20.80;79.00;;;;;;5071421;28;20016;-60
2021/05/09 12:20:42;;;;;;;3.57;1.77;;;20.80;78.50;;;;;;5084770;28;20033;-60
2021/05/09 12:23:25;;;;;;;3.50;1.50;;;20.80;78.10;;;;;;5067393;28;20370;-60
2021/05/09 12:25:51;;;;;;;3.40;1.88;;;20.90;77.20;;;;;;5070186;28;20044;-61
2021/05/09 12:28:27;;;;;;;5.88;1.90;;;21.00;77.00;;;;;;5071463;28;20416;-60
2021/05/09 12:30:53;;;;;;;7.50;1.65;;;21.00;75.80;;;;;;5071264;28;20155;-60
2021/05/09 12:33:29;;;;;;;4.78;1.25;;;21.00;75.70;;;;;;5071306;28;20112;-60
2021/05/09 12:35:57;;;;;;;2.10;1.30;;;21.10;74.90;;;;;;5071678;28;20040;-60
2021/05/09 12:38:28;;;;;;;3.00;1.45;;;21.10;74.50;;;;;;5071013;28;20099;-60
2021/05/09 12:41:05;;;;;;;1.67;1.35;;;21.20;74.10;;;;;;5069639;28;20024;-60
2021/05/09 12:43:47;;;;;;;3.67;1.70;;;21.30;74.10;;;;;;5071279;28;20028;-60
2021/05/09 12:46:42;;;;;;;4.13;1.38;;;21.40;74.00;;;;;;5068082;28;20039;-60
2021/05/09 12:49:32;;;;;;;3.15;1.35;;;21.40;74.20;;;;;;5069589;28;20090;-60
2021/05/09 12:52:07;;;;;;;2.00;1.25;;;21.50;74.80;;;;;;5069847;28;20503;-60
2021/05/09 12:54:33;;;;;;;3.10;1.80;;;21.60;74.40;;;;;;5072103;28;20040;-60